createdAt,value
2022-09-20T03:01:42.514Z,7.85
2022-09-20T03:04:30.696Z,7.88
2022-09-20T03:07:30.059Z,7.86
2022-09-20T03:10:24.038Z,7.84
2022-09-20T03:13:17.872Z,7.83
2022-09-20T03:15:47.235Z,7.81
2022-09-20T03:18:27.026Z,7.81
2022-09-20T03:21:22.615Z,7.80
2022-09-20T03:23:57.866Z,7.84
2022-09-20T03:26:34.520Z,7.86
2022-09-20T03:29:09.226Z,7.90
2022-09-20T03:32:04.625Z,7.81
2022-09-20T03:34:33.989Z,7.97
2022-09-20T03:37:22.235Z,7.93
2022-09-20T03:40:46.632Z,8.00
2022-09-20T03:43:35.577Z,8.06
2022-09-20T03:46:18.894Z,8.08
2022-09-20T03:49:16.038Z,8.10
2022-09-20T03:52:06.944Z,8.13
2022-09-20T03:55:02.471Z,8.13
2022-09-20T03:57:41.799Z,8.05
2022-09-20T04:00:08.163Z,8.02
2022-09-20T04:03:01.098Z,8.02
2022-09-20T04:06:13.694Z,8.03
2022-09-20T04:08:45.757Z,8.05
2022-09-20T04:11:15.733Z,8.12
2022-09-20T04:14:01.073Z,7.90
2022-09-20T04:16:59.859Z,7.96
2022-09-20T04:19:38.060Z,7.99
2022-09-20T04:22:07.387Z,8.05
2022-09-20T04:24:53.023Z,7.92
2022-09-20T04:27:34.729Z,7.97
2022-09-20T04:30:29.803Z,8.08
2022-09-20T04:33:21.816Z,7.96
2022-09-20T04:36:16.165Z,8.11
2022-09-20T04:38:43.039Z,8.05
2022-09-20T04:41:19.833Z,7.96
2022-09-20T04:44:23.087Z,8.00
2022-09-20T04:47:05.929Z,7.99
2022-09-20T04:49:33.684Z,7.94
2022-09-20T04:52:37.110Z,8.04
2022-09-20T04:55:35.393Z,7.98
2022-09-20T04:58:10.597Z,7.99
2022-09-20T05:00:52.670Z,7.97
2022-09-20T05:03:29.539Z,8.00
2022-09-20T05:06:33.407Z,7.96
2022-09-20T05:09:30.404Z,8.02
2022-09-20T05:12:21.401Z,8.08
2022-09-20T05:15:38.279Z,8.12
2022-09-20T05:18:42.825Z,8.08
2022-09-20T05:21:30.115Z,8.18
2022-09-20T05:24:33.723Z,8.19
2022-09-20T05:27:28.521Z,8.20
2022-09-20T05:30:13.389Z,8.19
2022-09-20T05:33:02.805Z,8.24
2022-09-20T05:35:58.492Z,8.24
2022-09-20T05:38:45.555Z,8.24
2022-09-20T05:41:24.324Z,8.28
2022-09-20T05:44:12.787Z,8.32
2022-09-20T05:46:58.964Z,8.34
2022-09-20T05:49:52.518Z,8.33
2022-09-20T05:52:44.114Z,8.48
2022-09-20T05:55:47.822Z,8.42
2022-09-20T05:58:32.231Z,8.52
2022-09-20T06:01:18.936Z,8.52
2022-09-20T06:03:54.447Z,8.65
2022-09-20T06:06:51.049Z,8.78
2022-09-20T06:09:39.344Z,8.89
2022-09-20T06:12:08.713Z,9.07
2022-09-20T06:15:00.829Z,9.14
2022-09-20T06:17:38.675Z,9.21
2022-09-20T06:20:17.168Z,9.52
2022-09-20T06:22:47.204Z,9.52
2022-09-20T06:25:20.140Z,9.72
2022-09-20T06:27:59.288Z,9.78
2022-09-20T06:30:40.920Z,9.80
2022-09-20T06:33:07.329Z,10.07
2022-09-20T06:35:39.396Z,10.12
2022-09-20T06:38:36.790Z,10.19
2022-09-20T06:41:22.277Z,10.30
2022-09-20T06:43:49.015Z,10.27
2022-09-20T06:46:16.181Z,10.46
2022-09-20T06:48:42.895Z,10.64
2022-09-20T06:51:09.647Z,10.99
2022-09-20T06:53:40.991Z,11.34
2022-09-20T06:56:17.323Z,11.92
2022-09-20T06:58:43.848Z,12.08
2022-09-20T07:01:10.446Z,12.18
2022-09-20T07:03:38.435Z,12.04
2022-09-20T07:06:05.024Z,11.99
2022-09-20T07:08:31.549Z,11.72
2022-09-20T07:11:04.056Z,11.43
2022-09-20T07:13:30.519Z,11.42
2022-09-20T07:16:02.445Z,11.54
2022-09-20T07:18:29.389Z,12.39
2022-09-20T07:20:58.759Z,13.14
2022-09-20T07:23:26.333Z,13.96
2022-09-20T07:25:53.634Z,14.52
2022-09-20T07:28:20.713Z,15.03
2022-09-20T07:30:47.793Z,15.01
2022-09-20T07:33:19.509Z,15.12
2022-09-20T07:35:46.604Z,15.31
2022-09-20T07:38:13.738Z,15.67
2022-09-20T07:40:40.179Z,16.00
2022-09-20T07:43:06.771Z,16.00
2022-09-20T07:45:35.111Z,16.55
2022-09-20T07:48:05.247Z,16.77
2022-09-20T07:50:32.705Z,16.74
2022-09-20T07:52:59.477Z,16.78
2022-09-20T07:55:25.931Z,16.91
2022-09-20T07:57:52.446Z,16.92
2022-09-20T08:00:18.998Z,17.32
2022-09-20T08:02:45.665Z,17.80
2022-09-20T08:05:12.465Z,17.13
2022-09-20T08:07:39.368Z,17.88
2022-09-20T08:10:06.232Z,18.13
2022-09-20T08:15:19.722Z,18.11
2022-09-20T08:17:47.490Z,18.45
2022-09-20T08:20:14.002Z,18.37
2022-09-20T08:22:42.956Z,17.98
2022-09-20T08:25:09.517Z,18.58
2022-09-20T08:27:36.112Z,17.97
2022-09-20T08:30:02.713Z,18.31
2022-09-20T08:32:29.109Z,18.57
2022-09-20T08:34:55.542Z,18.46
2022-09-20T08:37:21.991Z,18.91
2022-09-20T08:39:57.908Z,18.78
2022-09-20T08:42:36.655Z,18.92
2022-09-20T08:45:21.817Z,18.72
2022-09-20T08:48:02.184Z,19.19
2022-09-20T08:50:29.013Z,18.73
2022-09-20T08:53:04.943Z,18.85
2022-09-20T08:55:39.952Z,18.99
2022-09-20T08:58:12.085Z,18.72
2022-09-20T09:00:46.862Z,19.27
2022-09-20T09:03:16.901Z,19.14
2022-09-20T09:05:50.129Z,19.46
2022-09-20T09:08:37.911Z,19.85
2022-09-20T09:11:14.626Z,20.10
2022-09-20T09:13:53.667Z,19.62
2022-09-20T09:16:27.445Z,19.56
2022-09-20T09:18:57.715Z,20.55
2022-09-20T09:21:27.129Z,20.37
2022-09-20T09:24:05.996Z,19.77
2022-09-20T09:26:38.774Z,20.71
2022-09-20T09:29:09.411Z,19.77
2022-09-20T09:31:37.255Z,20.24
2022-09-20T09:34:04.205Z,20.67
2022-09-20T09:36:33.734Z,21.10
2022-09-20T09:39:22.587Z,20.77
2022-09-20T09:41:49.450Z,20.33
2022-09-20T09:44:20.624Z,19.37
2022-09-20T09:46:47.839Z,18.90
2022-09-20T09:49:24.943Z,19.37
2022-09-20T09:52:12.922Z,20.00
2022-09-20T09:54:47.169Z,20.64
2022-09-20T09:57:41.406Z,21.23
2022-09-20T10:00:21.531Z,19.89
2022-09-20T10:03:13.059Z,21.32
2022-09-20T10:06:00.485Z,22.03
2022-09-20T10:09:06.282Z,21.72
2022-09-20T10:12:11.651Z,21.66
2022-09-20T10:14:56.145Z,22.31
2022-09-20T10:17:28.226Z,20.53
2022-09-20T10:20:28.102Z,20.46
2022-09-20T10:24:01.555Z,20.85
2022-09-20T10:26:11.329Z,20.21
2022-09-20T10:28:58.743Z,19.10
2022-09-20T10:32:04.233Z,19.30
2022-09-20T10:34:30.587Z,20.10
2022-09-20T10:36:58.973Z,20.27
2022-09-20T10:39:38.399Z,20.12
2022-09-20T10:43:04.910Z,20.11
2022-09-20T10:46:08.830Z,19.25
2022-09-20T10:48:35.675Z,18.73
2022-09-20T10:51:15.767Z,19.84
2022-09-20T10:53:48.069Z,19.77
2022-09-20T10:56:36.702Z,19.52
2022-09-20T10:59:32.467Z,18.78
2022-09-20T11:02:14.015Z,18.39
2022-09-20T11:04:56.927Z,17.36
2022-09-20T11:07:57.116Z,16.81
2022-09-20T11:10:57.688Z,16.40
2022-09-20T11:13:34.019Z,16.32
2022-09-20T11:16:17.286Z,15.86
2022-09-20T11:19:16.140Z,16.38
2022-09-20T11:21:50.713Z,16.30
2022-09-20T11:24:26.622Z,15.84
2022-09-20T11:27:24.600Z,15.20
2022-09-20T11:30:19.002Z,14.81
2022-09-20T11:33:06.161Z,15.06
2022-09-20T11:35:44.760Z,14.82
2022-09-20T11:38:32.870Z,13.42
2022-09-20T11:41:17.209Z,15.34
2022-09-20T11:43:45.944Z,14.76
2022-09-20T11:46:38.472Z,15.09
2022-09-20T11:49:12.674Z,15.06
2022-09-20T11:51:46.261Z,15.10
2022-09-20T11:54:22.937Z,15.42
2022-09-20T11:56:56.539Z,15.82
2022-09-20T11:59:30.603Z,15.21
2022-09-20T12:02:00.393Z,15.61
2022-09-20T12:04:35.021Z,15.68
2022-09-20T12:07:18.072Z,15.84
2022-09-20T12:10:23.317Z,16.12
2022-09-20T12:12:57.713Z,16.53
2022-09-20T12:15:26.059Z,16.63
2022-09-20T12:17:52.613Z,17.20
2022-09-20T12:20:58.234Z,17.20
2022-09-20T12:23:43.409Z,17.30
2022-09-20T12:26:11.143Z,18.03
2022-09-20T12:29:04.392Z,17.85
2022-09-20T12:31:33.821Z,17.59
2022-09-20T12:34:04.521Z,17.47
2022-09-20T12:36:36.394Z,17.20
2022-09-20T12:39:12.091Z,17.39
2022-09-20T12:41:58.458Z,17.23
2022-09-20T12:44:46.989Z,17.65
2022-09-20T12:47:13.596Z,18.36
2022-09-20T12:50:07.873Z,18.57
2022-09-20T12:53:03.836Z,18.80
2022-09-20T12:55:32.472Z,18.59
2022-09-20T12:58:07.480Z,18.61
2022-09-20T13:00:48.185Z,18.25
2022-09-20T13:03:23.950Z,17.84
2022-09-20T13:06:17.509Z,17.18
2022-09-20T13:08:54.123Z,16.09
2022-09-20T13:11:23.496Z,16.50
2022-09-20T13:13:55.573Z,16.40
2022-09-20T13:16:36.311Z,16.38
2022-09-20T13:19:29.926Z,16.32
2022-09-20T13:22:27.161Z,15.85
2022-09-20T13:24:59.541Z,16.03
2022-09-20T13:27:32.388Z,16.10
2022-09-20T13:30:26.879Z,15.96
2022-09-20T13:32:53.481Z,16.08
2022-09-20T13:35:31.709Z,16.18
2022-09-20T13:38:07.209Z,16.26
2022-09-20T13:40:43.704Z,16.21
2022-09-20T13:43:37.937Z,16.65
2022-09-20T13:46:07.300Z,16.58
2022-09-20T13:48:34.588Z,16.79
2022-09-20T13:51:01.125Z,16.78
2022-09-20T13:53:41.007Z,16.54
2022-09-20T13:56:18.115Z,16.44
2022-09-20T13:58:44.702Z,16.35
2022-09-20T14:01:32.705Z,16.34
2022-09-20T14:04:15.123Z,16.43
2022-09-20T14:06:42.486Z,16.69
2022-09-20T14:09:20.514Z,16.01
2022-09-20T14:11:47.315Z,16.18
2022-09-20T14:14:18.580Z,16.06
2022-09-20T14:16:49.543Z,16.03
2022-09-20T14:19:19.045Z,16.04
2022-09-20T14:21:46.145Z,16.17
2022-09-20T14:24:32.915Z,16.09
2022-09-20T14:27:13.240Z,16.28
2022-09-20T14:29:50.446Z,16.50
2022-09-20T14:32:16.871Z,15.84
2022-09-20T14:35:00.397Z,16.35
2022-09-20T14:37:44.589Z,16.50
2022-09-20T14:40:27.425Z,16.39
2022-09-20T14:42:57.739Z,16.45
2022-09-20T14:45:38.898Z,16.59
2022-09-20T14:48:11.108Z,16.56
2022-09-20T14:50:37.980Z,16.38
2022-09-20T14:53:26.555Z,16.64
2022-09-20T14:56:06.822Z,16.61
2022-09-20T14:58:54.799Z,16.78
2022-09-20T15:01:24.398Z,16.85
2022-09-20T15:03:52.294Z,16.87
2022-09-20T15:06:19.094Z,16.82
2022-09-20T15:08:46.848Z,16.89
2022-09-20T15:11:20.409Z,16.60
2022-09-20T15:13:46.897Z,16.63
2022-09-20T15:16:15.004Z,16.77
2022-09-20T15:18:43.332Z,16.85
2022-09-20T15:21:13.322Z,16.78
2022-09-20T15:23:40.465Z,16.55
2022-09-20T15:26:08.791Z,16.64
2022-09-20T15:28:35.298Z,15.68
2022-09-20T15:31:01.827Z,15.02
2022-09-20T15:33:30.967Z,14.90
2022-09-20T15:35:58.250Z,14.70
2022-09-20T15:38:26.992Z,14.70
2022-09-20T15:40:54.108Z,14.76
2022-09-20T15:43:24.232Z,14.76
2022-09-20T15:45:54.057Z,14.80
2022-09-20T15:48:25.960Z,14.95
2022-09-20T15:51:02.088Z,15.03
2022-09-20T15:53:40.788Z,14.87
2022-09-20T15:56:34.883Z,13.80
2022-09-20T15:59:04.383Z,13.66
2022-09-20T16:01:37.565Z,13.40
2022-09-20T16:04:10.414Z,13.11
2022-09-20T16:06:38.183Z,12.72
2022-09-20T16:09:05.788Z,12.77
2022-09-20T16:11:32.462Z,12.86
2022-09-20T16:14:00.188Z,13.22
2022-09-20T16:16:35.033Z,13.29
2022-09-20T16:19:19.790Z,13.47
2022-09-20T16:21:57.626Z,13.56
2022-09-20T16:24:30.962Z,13.64
2022-09-20T16:27:00.771Z,13.73
2022-09-20T16:29:29.417Z,13.71
2022-09-20T16:31:57.627Z,13.75
2022-09-20T16:34:33.190Z,13.60
2022-09-20T16:37:05.952Z,13.65
2022-09-20T16:39:32.804Z,13.64
2022-09-20T16:42:04.928Z,13.67
2022-09-20T16:44:34.139Z,13.62
2022-09-20T16:47:01.234Z,13.65
2022-09-20T16:49:27.885Z,13.87
2022-09-20T16:51:54.689Z,13.93
2022-09-20T16:54:21.209Z,13.93
2022-09-20T16:56:49.568Z,13.92
2022-09-20T16:59:24.073Z,13.90
2022-09-20T17:01:51.101Z,13.90
2022-09-20T17:04:18.892Z,13.82
2022-09-20T17:06:45.911Z,13.79
2022-09-20T17:09:13.745Z,13.99
2022-09-20T17:11:50.871Z,14.02
2022-09-20T17:14:20.275Z,13.90
2022-09-20T17:16:48.039Z,13.84
2022-09-20T17:19:16.862Z,13.93
2022-09-20T17:21:45.133Z,13.81
2022-09-20T17:24:13.706Z,13.94
2022-09-20T17:26:44.632Z,13.89
2022-09-20T17:29:13.936Z,13.77
2022-09-20T17:31:42.394Z,13.95
2022-09-20T17:34:11.057Z,14.07
2022-09-20T17:36:40.735Z,13.93
2022-09-20T17:39:10.869Z,13.87
2022-09-20T17:41:38.224Z,13.83
2022-09-20T17:44:12.033Z,13.90
2022-09-20T17:46:43.678Z,13.74
2022-09-20T17:49:12.681Z,13.84
2022-09-20T17:51:42.196Z,13.87
2022-09-20T17:54:12.825Z,13.89
2022-09-20T17:56:47.554Z,13.86
2022-09-20T17:59:18.143Z,13.82
2022-09-20T18:01:46.910Z,13.78
2022-09-20T18:04:13.845Z,13.72
2022-09-20T18:06:48.906Z,13.73
2022-09-20T18:09:17.647Z,13.74
2022-09-20T18:11:46.377Z,13.64
2022-09-20T18:14:15.624Z,13.59
2022-09-20T18:16:45.673Z,13.61
2022-09-20T18:19:13.082Z,13.23
2022-09-20T18:21:40.842Z,13.42
2022-09-20T18:24:09.263Z,13.30
2022-09-20T18:26:36.999Z,13.39
2022-09-20T18:29:11.032Z,13.40
2022-09-20T18:31:48.978Z,13.40
2022-09-20T18:34:20.917Z,13.31
2022-09-20T18:36:52.883Z,13.36
2022-09-20T18:39:24.156Z,13.30
2022-09-20T18:41:52.895Z,13.23
2022-09-20T18:44:20.240Z,13.25
2022-09-20T18:46:47.043Z,13.19
2022-09-20T18:49:15.089Z,13.24
2022-09-20T18:51:42.687Z,13.31
2022-09-20T18:54:10.555Z,13.28
2022-09-20T18:56:39.497Z,13.10
2022-09-20T18:59:10.219Z,12.99
2022-09-20T19:01:42.855Z,12.94
2022-09-20T19:04:12.387Z,13.01
2022-09-20T19:06:58.632Z,13.05
2022-09-20T19:09:43.599Z,13.18
2022-09-20T19:12:23.326Z,13.16
2022-09-20T19:15:03.873Z,13.11
2022-09-20T19:17:57.307Z,13.15
2022-09-20T19:20:48.565Z,13.10
2022-09-20T19:23:41.186Z,12.94
2022-09-20T19:26:18.971Z,13.11
2022-09-20T19:28:46.170Z,13.02
2022-09-20T19:31:27.490Z,13.08
2022-09-20T19:33:56.075Z,12.97
2022-09-20T19:36:24.175Z,12.98
2022-09-20T19:38:58.260Z,13.15
2022-09-20T19:41:27.270Z,13.19
2022-09-20T19:44:28.535Z,13.15
2022-09-20T19:47:16.372Z,13.20
2022-09-20T19:49:55.757Z,13.14
2022-09-20T19:52:25.253Z,13.10
2022-09-20T19:54:52.406Z,13.03
2022-09-20T19:57:22.704Z,13.16
2022-09-20T19:59:50.946Z,13.13
